Time;durP1;ratioP1;P1;durP2;ratioP2;P2;SDS_P1;SDS_P2;PMS_P1;PMS_P2;Temp;Humidity;BMP_temperature;BMP_pressure;BME280_temperature;BME280_humidity;BME280_pressure;Samples;Min_cycle;Max_cycle;Signal;HPM_P1;HPM_P2
2022/04/02 00:00:31;;;;;;;0.38;0.10;;;14.90;35.00;;;;;;5072516;28;20472;-70
2022/04/02 00:02:57;;;;;;;0.65;0.10;;;14.90;35.10;;;;;;5072288;28;20447;-71
2022/04/02 00:05:27;;;;;;;0.30;0.10;;;14.90;35.10;;;;;;5072356;28;20399;-71
2022/04/02 00:07:52;;;;;;;0.23;0.10;;;14.90;35.10;;;;;;5072410;28;20054;-70
2022/04/02 00:10:18;;;;;;;0.70;0.10;;;14.90;35.10;;;;;;5072540;28;20048;-70
2022/04/02 00:12:45;;;;;;;0.50;0.13;;;14.80;35.00;;;;;;5073777;28;20721;-72
2022/04/02 00:15:11;;;;;;;0.47;0.10;;;14.90;35.00;;;;;;5072467;28;20036;-69
2022/04/02 00:17:36;;;;;;;0.40;0.10;;;14.80;34.90;;;;;;5072466;28;20082;-71
2022/04/02 00:20:04;;;;;;;0.10;0.10;;;14.80;34.90;;;;;;5073498;28;20460;-72
2022/04/02 00:22:30;;;;;;;0.30;0.10;;;14.90;34.80;;;;;;5072038;28;20549;-73
2022/04/02 00:24:56;;;;;;;0.40;0.20;;;14.90;34.70;;;;;;5071562;28;20047;-72
2022/04/02 00:27:22;;;;;;;0.20;0.10;;;14.90;34.70;;;;;;5073230;28;20396;-68
2022/04/02 00:29:47;;;;;;;0.32;0.10;;;14.90;34.80;;;;;;5055713;28;20048;-71
2022/04/02 00:32:16;;;;;;;0.20;0.10;;;14.80;34.70;;;;;;5072243;28;20078;-72
2022/04/02 00:34:42;;;;;;;1.00;0.10;;;14.80;34.80;;;;;;5071902;28;20554;-71
2022/04/02 00:37:08;;;;;;;0.20;0.10;;;14.80;34.80;;;;;;5073038;28;20028;-71
2022/04/02 00:39:36;;;;;;;0.32;0.10;;;14.80;34.90;;;;;;5072932;28;20041;-73
2022/04/02 00:42:02;;;;;;;0.20;0.10;;;14.80;34.90;;;;;;5071587;28;20040;-73
2022/04/02 00:44:28;;;;;;;0.17;0.00;;;14.80;35.00;;;;;;5071208;28;20041;-71
2022/04/02 00:46:54;;;;;;;0.70;0.10;;;14.80;35.00;;;;;;5071224;28;20476;-71
2022/04/02 00:49:20;;;;;;;0.70;0.10;;;14.80;35.00;;;;;;5071897;28;20051;-73
2022/04/02 00:51:48;;;;;;;0.55;0.10;;;14.70;35.10;;;;;;5072689;28;20048;-70
2022/04/02 00:54:16;;;;;;;0.88;0.10;;;14.70;35.10;;;;;;5071666;28;20052;-72
2022/04/02 00:56:42;;;;;;;0.50;0.17;;;14.70;35.10;;;;;;5071585;28;20396;-71
2022/04/02 00:59:08;;;;;;;0.28;0.10;;;14.70;35.10;;;;;;5072791;28;20044;-71
2022/04/02 01:01:35;;;;;;;0.55;0.10;;;14.70;35.10;;;;;;5071157;28;20478;-69
2022/04/02 01:04:02;;;;;;;0.30;0.10;;;14.70;35.10;;;;;;5071541;28;20052;-71
2022/04/02 01:06:30;;;;;;;0.20;0.10;;;14.70;35.10;;;;;;5071540;28;20041;-72
2022/04/02 01:08:56;;;;;;;0.57;0.10;;;14.70;35.20;;;;;;5071049;28;20499;-69
2022/04/02 01:11:35;;;;;;;0.50;0.10;;;14.60;35.10;;;;;;5071400;28;20032;-71
2022/04/02 01:14:01;;;;;;;0.60;0.10;;;14.60;35.30;;;;;;5071338;28;20044;-72
2022/04/02 01:16:27;;;;;;;2.58;0.20;;;14.60;35.20;;;;;;5072270;28;20370;-69
2022/04/02 01:18:52;;;;;;;0.28;0.10;;;14.60;35.20;;;;;;5071264;28;20443;-71
2022/04/02 01:21:18;;;;;;;0.30;0.10;;;14.60;35.20;;;;;;5072215;28;20037;-72
2022/04/02 01:23:44;;;;;;;1.15;0.10;;;14.60;35.20;;;;;;5070817;28;20060;-71
2022/04/02 01:26:10;;;;;;;0.40;0.10;;;14.60;35.20;;;;;;5072216;28;20119;-70
2022/04/02 01:28:36;;;;;;;0.68;0.10;;;14.50;35.20;;;;;;5071101;28;20033;-71
2022/04/02 01:31:04;;;;;;;0.35;0.13;;;14.50;35.20;;;;;;5070898;28;20484;-70
2022/04/02 01:33:30;;;;;;;0.22;0.10;;;14.60;35.30;;;;;;5070777;28;20110;-71
2022/04/02 01:35:58;;;;;;;1.35;0.10;;;14.50;35.30;;;;;;5070997;28;20131;-71
2022/04/02 01:38:28;;;;;;;0.22;0.20;;;14.50;35.40;;;;;;5070813;28;20520;-71
2022/04/02 01:40:54;;;;;;;0.32;0.20;;;14.50;35.40;;;;;;5070990;28;20048;-71
2022/04/02 01:43:19;;;;;;;0.60;0.10;;;14.50;35.40;;;;;;5071981;28;20040;-70
2022/04/02 01:45:45;;;;;;;0.40;0.03;;;14.50;35.40;;;;;;5070708;28;20041;-72
2022/04/02 01:48:10;;;;;;;0.50;0.10;;;14.50;35.50;;;;;;5070571;28;20047;-72
2022/04/02 01:50:36;;;;;;;0.40;0.10;;;14.50;35.50;;;;;;5070962;28;20044;-70
2022/04/02 01:53:02;;;;;;;1.38;0.10;;;14.50;35.50;;;;;;5070594;28;20060;-70
2022/04/02 01:55:28;;;;;;;0.43;0.10;;;14.40;35.50;;;;;;5070565;28;20119;-71
2022/04/02 01:57:54;;;;;;;0.47;0.10;;;14.40;35.50;;;;;;5070802;28;20044;-71
2022/04/02 02:00:21;;;;;;;0.25;0.10;;;14.40;35.50;;;;;;5070464;28;20484;-69
2022/04/02 02:02:47;;;;;;;0.70;0.20;;;14.40;35.60;;;;;;5071376;28;20067;-71
2022/04/02 02:05:13;;;;;;;0.20;0.10;;;14.40;35.60;;;;;;5070680;28;20048;-71
2022/04/02 02:07:39;;;;;;;0.30;0.10;;;14.40;35.60;;;;;;5070412;28;20059;-68
2022/04/02 02:10:05;;;;;;;0.85;0.10;;;14.40;35.60;;;;;;5070504;28;20621;-70
2022/04/02 02:12:30;;;;;;;0.43;0.17;;;14.40;35.60;;;;;;5070540;28;20041;-70
2022/04/02 02:14:59;;;;;;;0.30;0.10;;;14.40;35.60;;;;;;5070617;28;20036;-72
2022/04/02 02:17:25;;;;;;;0.47;0.10;;;14.30;35.50;;;;;;5070349;28;20488;-68
2022/04/02 02:19:50;;;;;;;0.75;0.20;;;14.40;35.60;;;;;;5070328;28;20080;-69
2022/04/02 02:22:16;;;;;;;0.32;0.10;;;14.30;35.60;;;;;;5070204;28;20051;-71
2022/04/02 02:24:42;;;;;;;1.83;0.80;;;14.30;35.60;;;;;;5070207;28;20036;-72
2022/04/02 02:27:08;;;;;;;0.50;0.10;;;14.30;35.60;;;;;;5070271;28;20078;-69
2022/04/02 02:29:33;;;;;;;0.32;0.10;;;14.30;35.60;;;;;;5070124;28;20040;-72
2022/04/02 02:31:59;;;;;;;0.43;0.10;;;14.30;35.70;;;;;;5070406;28;20049;-71
2022/04/02 02:37:10;;;;;;;0.17;0.10;;;14.20;35.70;;;;;;5070030;28;20044;-71
2022/04/02 02:39:36;;;;;;;0.20;0.10;;;14.20;35.70;;;;;;5071558;28;20143;-70
2022/04/02 02:42:02;;;;;;;0.30;0.10;;;14.20;35.70;;;;;;5070050;28;20041;-70
2022/04/02 02:44:28;;;;;;;0.30;0.10;;;14.20;35.70;;;;;;5070104;28;20117;-71
2022/04/02 02:46:53;;;;;;;0.40;0.10;;;14.20;35.70;;;;;;5070002;28;20042;-71
2022/04/02 02:49:19;;;;;;;0.50;0.10;;;14.20;35.60;;;;;;5072218;28;20043;-72
2022/04/02 02:51:44;;;;;;;0.20;0.10;;;14.30;35.70;;;;;;5074946;28;20505;-70
2022/04/02 02:54:10;;;;;;;0.20;0.10;;;14.30;35.60;;;;;;5075312;28;20076;-70
2022/04/02 02:56:36;;;;;;;0.63;0.13;;;14.20;35.50;;;;;;5075133;28;20119;-71
2022/04/02 02:59:02;;;;;;;0.60;0.10;;;14.30;35.50;;;;;;5073250;28;20045;-68
2022/04/02 03:01:28;;;;;;;0.30;0.10;;;14.20;35.50;;;;;;5073582;28;20048;-70
2022/04/02 03:03:54;;;;;;;0.35;0.10;;;14.20;35.50;;;;;;5073507;28;20059;-71
2022/04/02 03:06:19;;;;;;;0.50;0.10;;;14.20;35.60;;;;;;5075173;28;20041;-71
2022/04/02 03:08:45;;;;;;;0.20;0.10;;;14.20;35.70;;;;;;5073763;28;20051;-70
2022/04/02 03:11:11;;;;;;;0.40;0.10;;;14.20;35.70;;;;;;5073688;28;20028;-71
2022/04/02 03:13:38;;;;;;;0.77;0.10;;;14.10;35.80;;;;;;5073472;28;20048;-71
2022/04/02 03:16:04;;;;;;;1.38;0.10;;;14.10;35.80;;;;;;5073270;28;20044;-69
2022/04/02 03:18:30;;;;;;;1.40;0.20;;;14.10;35.80;;;;;;5073365;28;20128;-71
2022/04/02 03:20:58;;;;;;;0.50;0.13;;;14.10;35.80;;;;;;5073278;28;20136;-70
2022/04/02 03:23:24;;;;;;;0.30;0.10;;;14.10;36.60;;;;;;5073140;28;20103;-70
2022/04/02 03:25:49;;;;;;;0.32;0.10;;;14.10;35.80;;;;;;5074690;28;20396;-69
2022/04/02 03:28:15;;;;;;;0.50;0.30;;;14.00;35.90;;;;;;5073114;28;20036;-69
2022/04/02 03:30:41;;;;;;;0.35;0.10;;;14.00;35.90;;;;;;5073164;28;20041;-70
2022/04/02 03:33:06;;;;;;;0.73;0.10;;;14.00;36.00;;;;;;5073250;28;20036;-68
2022/04/02 03:35:32;;;;;;;0.63;0.10;;;14.00;36.00;;;;;;5073016;28;20066;-69
2022/04/02 03:37:58;;;;;;;1.10;0.15;;;14.00;36.00;;;;;;5072922;28;20040;-69
2022/04/02 03:40:25;;;;;;;0.43;0.10;;;14.00;36.00;;;;;;5074204;28;20107;-70
2022/04/02 03:42:52;;;;;;;0.20;0.10;;;14.00;36.00;;;;;;5072925;28;20124;-70
2022/04/02 03:45:22;;;;;;;1.88;0.10;;;14.00;36.10;;;;;;5073590;28;20408;-71
2022/04/02 03:47:53;;;;;;;0.40;0.10;;;13.90;36.10;;;;;;5074140;28;20428;-70
2022/04/02 03:50:20;;;;;;;1.75;0.17;;;13.90;36.10;;;;;;5073010;28;20043;-69
2022/04/02 03:52:46;;;;;;;0.35;0.10;;;13.90;36.10;;;;;;5072633;28;20052;-70
2022/04/02 03:55:15;;;;;;;0.50;0.10;;;13.90;36.10;;;;;;5072945;28;20044;-69
2022/04/02 03:57:41;;;;;;;0.30;0.10;;;13.90;36.10;;;;;;5072865;28;20167;-70
2022/04/02 04:00:09;;;;;;;1.00;0.15;;;13.90;36.10;;;;;;5072836;28;20041;-70
2022/04/02 04:02:37;;;;;;;0.20;0.10;;;13.90;36.10;;;;;;5072231;28;20129;-69
2022/04/02 04:05:06;;;;;;;0.68;0.10;;;13.80;36.10;;;;;;5072472;28;20047;-69
2022/04/02 04:07:32;;;;;;;0.45;0.10;;;13.80;36.20;;;;;;5073595;28;20024;-69
2022/04/02 04:10:00;;;;;;;0.77;0.10;;;13.80;36.20;;;;;;5072681;28;20441;-70
2022/04/02 04:12:26;;;;;;;0.52;0.15;;;13.80;36.20;;;;;;5072307;28;20079;-72
2022/04/02 04:14:52;;;;;;;0.30;0.10;;;13.80;36.20;;;;;;5072222;28;20080;-69
2022/04/02 04:17:17;;;;;;;0.65;0.10;;;13.80;36.20;;;;;;5072222;28;20115;-70
2022/04/02 04:19:45;;;;;;;0.50;0.10;;;13.80;36.20;;;;;;5072372;28;20048;-70
2022/04/02 04:22:11;;;;;;;0.40;0.10;;;13.80;36.30;;;;;;5072036;28;20049;-70
2022/04/02 04:24:37;;;;;;;1.02;0.20;;;13.80;36.20;;;;;;5073268;28;20052;-69
2022/04/02 04:27:03;;;;;;;0.20;0.10;;;13.80;36.20;;;;;;5073594;28;20044;-69
2022/04/02 04:29:29;;;;;;;0.95;0.10;;;13.80;36.20;;;;;;5072119;28;20476;-70
2022/04/02 04:31:54;;;;;;;0.77;0.10;;;13.80;36.20;;;;;;5072017;28;20040;-69
2022/04/02 04:34:20;;;;;;;0.40;0.10;;;13.80;36.20;;;;;;5072100;28;20051;-69
2022/04/02 04:36:49;;;;;;;0.45;0.20;;;13.80;36.30;;;;;;5073015;28;20396;-69
2022/04/02 04:39:14;;;;;;;1.15;0.15;;;13.70;36.20;;;;;;5071719;28;20051;-68
2022/04/02 04:41:41;;;;;;;0.30;0.10;;;13.70;36.20;;;;;;5072072;28;20040;-70
2022/04/02 04:44:06;;;;;;;0.70;0.10;;;13.70;36.30;;;;;;5073208;28;20484;-71
2022/04/02 04:46:32;;;;;;;0.60;0.10;;;13.70;36.30;;;;;;5072035;28;20040;-72
2022/04/02 04:48:58;;;;;;;0.50;0.10;;;13.70;36.40;;;;;;5071786;28;20032;-69
2022/04/02 04:51:23;;;;;;;0.38;0.10;;;13.70;36.30;;;;;;5072677;28;20499;-71
2022/04/02 04:53:50;;;;;;;1.13;0.20;;;13.70;37.20;;;;;;5072794;28;20392;-71
2022/04/02 04:56:16;;;;;;;0.63;0.10;;;13.60;36.40;;;;;;5071750;28;20056;-70
2022/04/02 04:58:42;;;;;;;0.30;0.20;;;13.60;36.40;;;;;;5071414;28;20131;-69
2022/04/02 05:01:09;;;;;;;0.30;0.10;;;13.60;36.40;;;;;;5071338;28;20089;-69
2022/04/02 05:03:35;;;;;;;0.45;0.10;;;13.70;36.50;;;;;;5070993;28;20524;-69
2022/04/02 05:06:01;;;;;;;0.32;0.10;;;13.70;36.50;;;;;;5071209;28;20055;-70
2022/04/02 05:08:30;;;;;;;0.70;0.10;;;13.70;36.50;;;;;;5072432;28;20040;-70
2022/04/02 05:10:56;;;;;;;0.38;0.10;;;13.60;36.80;;;;;;5071060;28;20392;-70
2022/04/02 05:13:23;;;;;;;0.73;0.20;;;13.60;36.50;;;;;;5072257;28;20196;-72
2022/04/02 05:15:49;;;;;;;0.20;0.10;;;13.60;36.50;;;;;;5071248;28;20048;-69
2022/04/02 05:18:17;;;;;;;0.95;0.10;;;13.60;36.50;;;;;;5071012;28;20574;-69
2022/04/02 05:20:43;;;;;;;0.47;0.03;;;13.60;36.60;;;;;;5070916;28;20485;-69
2022/04/02 05:23:09;;;;;;;0.68;0.10;;;13.60;36.60;;;;;;5070920;28;20074;-69
2022/04/02 05:25:35;;;;;;;0.40;0.00;;;13.60;36.60;;;;;;5072281;28;20063;-71
2022/04/02 05:28:05;;;;;;;1.58;0.40;;;13.60;36.60;;;;;;5071161;28;20033;-69
2022/04/02 05:30:32;;;;;;;0.30;0.10;;;13.60;36.60;;;;;;5071319;28;20045;-70
2022/04/02 05:32:57;;;;;;;0.50;0.10;;;13.60;36.70;;;;;;5070958;28;20040;-70
2022/04/02 05:35:23;;;;;;;0.35;0.10;;;13.60;36.70;;;;;;5070746;28;20094;-70
2022/04/02 05:37:49;;;;;;;0.25;0.20;;;13.50;36.60;;;;;;5072011;28;20040;-71
2022/04/02 05:40:15;;;;;;;0.28;0.22;;;13.60;36.70;;;;;;5070673;28;20488;-69
2022/04/02 05:42:41;;;;;;;0.73;0.10;;;13.60;36.70;;;;;;5070805;28;20093;-69
2022/04/02 05:45:08;;;;;;;1.52;0.20;;;13.50;36.60;;;;;;5072232;28;20594;-69
2022/04/02 05:47:46;;;;;;;0.20;0.10;;;13.50;36.70;;;;;;5070880;28;20109;-70
2022/04/02 05:50:13;;;;;;;0.47;0.10;;;13.50;36.80;;;;;;5070527;28;20071;-71
2022/04/02 05:52:40;;;;;;;0.73;0.10;;;13.50;36.70;;;;;;5070793;28;20098;-69
2022/04/02 05:55:07;;;;;;;0.43;0.10;;;13.60;36.70;;;;;;5070570;28;20128;-69
2022/04/02 05:57:33;;;;;;;2.15;0.20;;;13.50;36.70;;;;;;5070459;28;20496;-69
2022/04/02 05:59:59;;;;;;;0.50;0.20;;;13.50;36.70;;;;;;5070533;28;20040;-69
2022/04/02 06:02:25;;;;;;;0.55;0.10;;;13.50;36.70;;;;;;5070119;28;20056;-70
2022/04/02 06:04:51;;;;;;;0.68;0.20;;;13.50;36.70;;;;;;5070419;28;20049;-70
2022/04/02 06:07:19;;;;;;;0.73;0.20;;;13.50;36.80;;;;;;5070632;28;20097;-69
2022/04/02 06:09:45;;;;;;;0.10;0.10;;;13.50;36.80;;;;;;5070455;28;20036;-70
2022/04/02 06:12:10;;;;;;;0.13;0.10;;;13.50;36.70;;;;;;5070651;28;20090;-69
2022/04/02 06:14:36;;;;;;;0.50;0.13;;;13.50;36.70;;;;;;5070665;28;20032;-69
2022/04/02 06:17:01;;;;;;;0.30;0.10;;;13.50;36.70;;;;;;5070586;28;20040;-70
2022/04/02 06:19:30;;;;;;;0.20;0.10;;;13.50;36.80;;;;;;5070327;28;20045;-69
2022/04/02 06:21:55;;;;;;;0.85;0.20;;;13.50;36.80;;;;;;5070174;28;20045;-69
2022/04/02 06:24:21;;;;;;;0.35;0.20;;;13.50;36.80;;;;;;5071912;28;20045;-70
2022/04/02 06:26:47;;;;;;;0.30;0.10;;;13.40;36.70;;;;;;5074603;28;20066;-69
2022/04/02 06:29:16;;;;;;;0.88;0.10;;;13.50;36.80;;;;;;5075517;28;20516;-70
2022/04/02 06:31:41;;;;;;;0.40;0.20;;;13.50;36.80;;;;;;5075522;28;20453;-69
2022/04/02 06:34:07;;;;;;;0.20;0.10;;;13.50;36.80;;;;;;5074459;28;20127;-69
2022/04/02 06:36:32;;;;;;;0.63;0.10;;;13.50;36.80;;;;;;5074363;28;20047;-71
2022/04/02 06:38:58;;;;;;;0.20;0.10;;;13.50;36.80;;;;;;5074054;28;20404;-69
2022/04/02 06:41:24;;;;;;;0.85;0.10;;;13.50;36.80;;;;;;5074312;28;20047;-70
2022/04/02 06:43:49;;;;;;;0.30;0.10;;;13.50;36.80;;;;;;5074078;28;20045;-70
2022/04/02 06:46:15;;;;;;;0.43;0.10;;;13.50;36.80;;;;;;5075263;28;20036;-69
2022/04/02 06:48:41;;;;;;;0.95;0.20;;;13.50;36.80;;;;;;5074161;28;20040;-71
2022/04/02 06:51:07;;;;;;;0.40;0.10;;;13.50;36.80;;;;;;5074140;28;20032;-69
2022/04/02 06:53:34;;;;;;;1.17;0.10;;;13.50;36.70;;;;;;5074019;28;20056;-69
2022/04/02 06:55:59;;;;;;;0.47;0.10;;;13.50;36.80;;;;;;5075069;28;20062;-69
2022/04/02 06:58:30;;;;;;;0.32;0.10;;;13.50;36.70;;;;;;5073605;28;20417;-69
2022/04/02 07:00:56;;;;;;;0.47;0.10;;;13.60;36.70;;;;;;5073950;28;20032;-71
2022/04/02 07:03:25;;;;;;;0.30;0.10;;;13.60;36.70;;;;;;5073331;28;20068;-70
2022/04/02 07:05:53;;;;;;;0.95;0.10;;;13.50;36.60;;;;;;5074703;28;20123;-70
2022/04/02 07:08:19;;;;;;;0.30;0.10;;;13.60;36.70;;;;;;5073521;28;20032;-72
2022/04/02 07:10:45;;;;;;;0.20;0.10;;;13.60;36.70;;;;;;5074908;28;20050;-70
2022/04/02 07:13:10;;;;;;;0.50;0.10;;;13.70;36.70;;;;;;5073463;28;20439;-69
2022/04/02 07:15:38;;;;;;;0.40;0.10;;;13.70;36.60;;;;;;5073720;28;20122;-70
2022/04/02 07:18:08;;;;;;;0.47;0.10;;;13.70;36.60;;;;;;5073590;28;20048;-69
2022/04/02 07:20:35;;;;;;;0.40;0.10;;;13.70;36.60;;;;;;5074546;28;20439;-70
2022/04/02 07:23:04;;;;;;;0.45;0.20;;;13.70;36.60;;;;;;5073454;28;20090;-70
2022/04/02 07:25:30;;;;;;;1.00;0.10;;;13.70;36.60;;;;;;5073434;28;20041;-71
2022/04/02 07:27:57;;;;;;;0.43;0.10;;;13.70;36.60;;;;;;5074493;28;20128;-69
2022/04/02 07:30:24;;;;;;;0.57;0.13;;;13.70;36.50;;;;;;5073322;28;20454;-70
2022/04/02 07:32:53;;;;;;;0.30;0.10;;;13.70;36.50;;;;;;5072564;28;20040;-71
2022/04/02 07:35:19;;;;;;;2.15;0.10;;;13.70;36.50;;;;;;5070969;28;20067;-68
2022/04/02 07:38:17;;;;;;;1.13;0.10;;;13.80;36.70;;;;;;5071140;28;20072;-69
2022/04/02 07:41:05;;;;;;;0.63;0.10;;;13.80;37.70;;;;;;5071903;28;20040;-68
2022/04/02 07:46:38;;;;;;;0.50;0.10;;;14.10;38.40;;;;;;5087590;28;20373;-69
2022/04/02 07:49:06;;;;;;;0.63;0.10;;;14.20;37.90;;;;;;5086155;28;20488;-67
2022/04/02 07:51:37;;;;;;;1.45;0.20;;;14.40;37.80;;;;;;5086000;28;20505;-66
2022/04/02 07:54:03;;;;;;;;;;;14.50;37.70;;;;;;5086800;28;20063;-66
2022/04/02 07:56:31;;;;;;;1.60;0.20;;;14.70;38.00;;;;;;5096676;28;19943;-67
2022/04/02 07:59:00;;;;;;;0.80;0.10;;;14.90;37.50;;;;;;5085609;28;20082;-66
2022/04/02 08:01:27;;;;;;;1.15;0.10;;;15.30;37.40;;;;;;5086017;28;20051;-67
2022/04/02 08:03:54;;;;;;;0.95;0.20;;;15.70;37.00;;;;;;5086443;28;20052;-65
2022/04/02 08:06:20;;;;;;;0.50;0.10;;;16.20;36.40;;;;;;5086355;28;20507;-67
2022/04/02 08:08:46;;;;;;;0.98;0.17;;;16.70;35.70;;;;;;5086605;28;20044;-66
2022/04/02 08:11:12;;;;;;;0.60;0.20;;;17.10;35.00;;;;;;5086180;28;20045;-69
2022/04/02 08:13:41;;;;;;;0.82;0.10;;;17.60;34.40;;;;;;5087595;28;20040;-69
2022/04/02 08:16:10;;;;;;;0.98;0.10;;;18.00;33.70;;;;;;5087369;28;20500;-67
2022/04/02 08:18:39;;;;;;;0.57;0.13;;;18.30;33.10;;;;;;5086366;28;20119;-67
2022/04/02 08:21:07;;;;;;;0.70;0.30;;;18.60;32.60;;;;;;5086214;28;20384;-69
2022/04/02 08:23:33;;;;;;;2.15;0.10;;;18.90;32.10;;;;;;5085986;28;20044;-69
2022/04/02 08:26:22;;;;;;;0.80;0.20;;;19.20;31.60;;;;;;5085943;28;20593;-68
2022/04/02 08:29:06;;;;;;;0.68;0.10;;;19.40;31.40;;;;;;5085767;28;20039;-66
2022/04/02 08:34:57;;;;;;;2.05;0.10;;;20.00;30.60;;;;;;5108191;27;20416;-69
2022/04/02 08:37:49;;;;;;;0.38;0.10;;;20.20;30.20;;;;;;5108246;28;20102;-68
2022/04/02 09:00:38;;;;;;;0.73;0.10;;;21.50;28.60;;;;;;5107739;27;20857;-70
2022/04/02 09:03:44;;;;;;;1.17;0.10;;;21.70;28.20;;;;;;5106725;28;20044;-70
2022/04/02 09:09:07;;;;;;;0.73;0.10;;;21.80;28.20;;;;;;5152287;27;1154779;-74
2022/04/02 09:15:06;;;;;;;0.57;0.10;;;22.20;27.70;;;;;;5154742;27;1183890;-74
2022/04/02 09:23:11;;;;;;;0.30;0.10;;;22.30;27.60;;;;;;5108774;27;20899;-71
2022/04/02 09:26:17;;;;;;;3.45;0.20;;;22.40;27.60;;;;;;5090612;28;20044;-70
2022/04/02 09:29:10;;;;;;;1.30;0.10;;;22.40;27.60;;;;;;5089490;28;20036;-70
2022/04/02 09:40:09;;;;;;;0.40;0.10;;;22.50;27.70;;;;;;5109327;27;20295;-73
2022/04/02 09:42:44;;;;;;;0.52;0.10;;;22.70;27.50;;;;;;5107363;28;20127;-71
2022/04/02 09:48:13;;;;;;;0.77;0.10;;;22.80;27.50;;;;;;5129192;27;20370;-75
2022/04/02 09:50:41;;;;;;;0.85;0.10;;;22.90;27.40;;;;;;5127558;28;20152;-75
2022/04/02 10:01:21;;;;;;;1.20;0.10;;;22.90;27.20;;;;;;5138053;27;1171955;-74
2022/04/02 10:03:57;;;;;;;0.77;0.00;;;23.10;27.20;;;;;;5152383;27;20275;-74
2022/04/02 10:06:34;;;;;;;0.28;0.00;;;23.00;27.20;;;;;;5152166;27;20117;-74
2022/04/02 10:14:29;;;;;;;0.57;0.10;;;23.00;27.30;;;;;;5073989;28;20767;-73
2022/04/02 10:17:03;;;;;;;0.50;0.10;;;23.10;27.30;;;;;;5081915;28;20040;-72
2022/04/02 10:19:32;;;;;;;0.55;0.10;;;23.10;27.40;;;;;;5081267;28;20547;-72
2022/04/02 10:24:51;;;;;;;2.95;0.10;;;23.20;27.30;;;;;;5088327;27;20409;-78
2022/04/02 10:27:32;;;;;;;0.30;0.00;;;23.20;27.40;;;;;;5087186;28;20564;-78
2022/04/02 10:33:34;;;;;;;1.45;0.10;;;23.30;27.40;;;;;;5156880;27;1176979;-75
2022/04/02 10:35:50;;;;;;;0.50;0.10;;;23.30;27.40;;;;;;5131111;27;20053;-74
2022/04/02 10:41:16;;;;;;;0.40;0.00;;;23.00;27.90;;;;;;5088079;27;20417;-77
2022/04/02 10:44:06;;;;;;;1.75;0.20;;;22.80;28.10;;;;;;5086853;28;20060;-75
2022/04/02 10:46:32;;;;;;;1.13;0.10;;;22.80;28.10;;;;;;5103606;28;20093;-73
2022/04/02 10:49:05;;;;;;;0.50;0.10;;;22.70;28.10;;;;;;5087314;28;20301;-72
2022/04/02 10:51:35;;;;;;;0.28;0.10;;;22.60;28.20;;;;;;5087275;28;20082;-73
2022/04/02 10:54:07;;;;;;;0.40;0.10;;;22.40;28.30;;;;;;5086258;28;20740;-75
2022/04/02 10:59:15;;;;;;;1.25;0.10;;;22.20;28.60;;;;;;5129019;27;20382;-71
2022/04/02 11:01:43;;;;;;;0.82;0.10;;;22.10;28.60;;;;;;5121728;28;20084;-76
2022/04/02 11:07:04;;;;;;;1.50;0.33;;;21.80;28.80;;;;;;5125193;27;1857806;-77
2022/04/02 11:12:15;;;;;;;1.75;0.20;;;21.70;28.80;;;;;;5117548;27;20428;-72
2022/04/02 11:14:45;;;;;;;1.85;0.10;;;21.50;29.10;;;;;;5124873;28;20053;-75
2022/04/02 11:17:26;;;;;;;;;;;21.30;29.20;;;;;;5125378;27;20031;-71
2022/04/02 11:19:56;;;;;;;5.10;0.10;;;21.10;29.30;;;;;;5106671;28;19959;-72
2022/04/02 11:22:27;;;;;;;2.40;0.10;;;21.00;29.30;;;;;;5127512;27;20718;-72
2022/04/02 11:27:47;;;;;;;1.98;0.10;;;20.60;29.30;;;;;;5118039;27;20373;-70
2022/04/02 11:30:15;;;;;;;3.40;0.47;;;20.50;29.40;;;;;;5105074;28;20079;-71
2022/04/02 11:32:43;;;;;;;0.80;0.38;;;20.30;29.30;;;;;;5113110;28;20043;-69
2022/04/02 11:35:14;;;;;;;4.43;0.32;;;20.20;29.20;;;;;;5110786;28;20484;-74
2022/04/02 11:37:54;;;;;;;1.73;0.30;;;19.90;29.30;;;;;;5107811;28;20072;-73
2022/04/02 11:40:20;;;;;;;1.20;0.10;;;19.70;29.50;;;;;;5109784;28;20394;-75
2022/04/02 11:42:47;;;;;;;1.70;0.15;;;19.50;30.30;;;;;;5106782;28;20050;-74
2022/04/02 11:45:18;;;;;;;2.10;0.10;;;19.40;30.00;;;;;;5114346;28;20062;-74
2022/04/02 11:47:50;;;;;;;1.25;0.10;;;19.20;30.20;;;;;;5143366;27;20050;-74
2022/04/02 11:50:31;;;;;;;0.80;0.10;;;19.10;30.60;;;;;;5126752;27;20036;-73
2022/04/02 11:52:58;;;;;;;0.93;0.20;;;18.90;30.80;;;;;;5123605;28;20050;-76
2022/04/02 11:55:29;;;;;;;1.38;0.28;;;18.70;30.90;;;;;;5107563;28;20114;-77
2022/04/02 12:00:38;;;;;;;2.00;0.38;;;18.70;31.10;;;;;;5128984;27;20493;-73
2022/04/02 12:03:06;;;;;;;3.00;0.30;;;18.40;31.50;;;;;;5127311;28;20509;-73
2022/04/02 12:05:36;;;;;;;2.97;0.40;;;18.20;31.70;;;;;;5127837;28;20043;-71
2022/04/02 12:08:02;;;;;;;3.47;0.10;;;18.10;31.90;;;;;;5127617;28;20036;-75
2022/04/02 12:10:28;;;;;;;2.60;0.28;;;18.00;32.00;;;;;;5127477;28;20078;-73
2022/04/02 12:12:59;;;;;;;1.58;0.20;;;18.00;32.20;;;;;;5129024;28;20075;-73
2022/04/02 12:15:26;;;;;;;4.32;0.20;;;18.00;32.40;;;;;;5130080;27;20035;-73
2022/04/02 12:17:59;;;;;;;2.50;0.17;;;17.90;32.50;;;;;;5128949;28;20054;-74
2022/04/02 12:23:16;;;;;;;2.28;0.10;;;17.80;32.50;;;;;;5129647;27;20945;-67
2022/04/02 12:25:45;;;;;;;1.58;0.20;;;17.80;32.60;;;;;;5129228;28;20039;-73
2022/04/02 12:28:17;;;;;;;3.33;0.20;;;17.80;32.60;;;;;;5129208;28;20058;-73
2022/04/02 12:30:48;;;;;;;2.72;0.25;;;17.70;32.60;;;;;;5128860;28;20084;-72
2022/04/02 12:33:19;;;;;;;0.50;0.10;;;17.60;32.50;;;;;;5128954;28;20307;-73
2022/04/02 12:35:54;;;;;;;2.05;0.10;;;17.50;32.40;;;;;;5128707;28;20047;-74
2022/04/02 12:38:29;;;;;;;1.00;0.10;;;17.40;32.60;;;;;;5129084;28;20417;-68
2022/04/02 12:40:57;;;;;;;1.33;0.20;;;17.30;32.90;;;;;;5130009;27;20402;-74
2022/04/02 12:43:28;;;;;;;1.08;0.08;;;17.20;33.00;;;;;;5129009;28;20036;-73
2022/04/02 12:45:56;;;;;;;1.73;0.10;;;17.20;33.20;;;;;;5128624;28;20067;-74
2022/04/02 12:48:24;;;;;;;1.90;0.17;;;17.10;33.10;;;;;;5128703;28;20039;-73
2022/04/02 12:53:37;;;;;;;1.17;0.15;;;17.10;33.20;;;;;;5130215;27;20410;-76
2022/04/02 12:56:07;;;;;;;1.42;0.10;;;17.00;33.40;;;;;;5129168;28;20051;-73
2022/04/02 12:58:41;;;;;;;1.35;0.15;;;16.90;33.40;;;;;;5128902;28;20044;-73
2022/04/02 13:01:16;;;;;;;1.48;0.30;;;16.90;33.40;;;;;;5128838;27;20035;-68
2022/04/02 13:06:47;;;;;;;0.70;0.30;;;16.80;33.50;;;;;;5130284;27;20357;-73
2022/04/02 13:09:18;;;;;;;1.17;0.10;;;16.80;33.60;;;;;;5128916;28;20039;-73
2022/04/02 13:17:18;;;;;;;0.60;0.20;;;16.70;33.70;;;;;;5156476;27;1170925;-73
2022/04/02 13:22:25;;;;;;;0.32;0.10;;;16.70;33.80;;;;;;5130273;27;20394;-71
2022/04/02 13:24:57;;;;;;;1.30;0.10;;;16.60;33.80;;;;;;5146185;27;20047;-74
2022/04/02 13:30:13;;;;;;;1.55;0.20;;;16.60;33.70;;;;;;5109752;27;20651;-73
2022/04/02 13:40:50;;;;;;;0.52;0.10;;;16.50;33.60;;;;;;5130307;27;20428;-72
2022/04/02 13:43:39;;;;;;;0.50;0.10;;;16.50;33.30;;;;;;5128953;28;20071;-70
2022/04/02 13:46:12;;;;;;;0.73;0.10;;;16.40;33.20;;;;;;5129334;28;20039;-73
2022/04/02 13:49:09;;;;;;;1.40;0.10;;;16.40;33.10;;;;;;5128824;28;20049;-73
2022/04/02 13:57:06;;;;;;;0.77;0.10;;;16.40;33.00;;;;;;5151052;27;20168;-72
2022/04/02 13:59:39;;;;;;;0.63;0.10;;;16.40;32.90;;;;;;5128842;28;20048;-72
2022/04/02 14:02:05;;;;;;;0.85;0.10;;;16.40;33.00;;;;;;5128849;28;20043;-73
2022/04/02 14:04:36;;;;;;;0.70;0.17;;;16.30;33.10;;;;;;5128904;28;20036;-68
2022/04/02 14:07:07;;;;;;;0.75;0.30;;;16.30;32.90;;;;;;5128776;28;20136;-71
2022/04/02 14:09:34;;;;;;;1.77;0.10;;;16.30;32.90;;;;;;5111766;28;20126;-72
2022/04/02 14:12:08;;;;;;;0.38;0.10;;;16.20;32.90;;;;;;5130074;27;20114;-72
2022/04/02 14:14:55;;;;;;;0.85;0.15;;;16.20;33.00;;;;;;5128976;28;20196;-72
2022/04/02 14:17:30;;;;;;;1.55;0.20;;;16.10;33.20;;;;;;5128745;28;20055;-72
2022/04/02 14:20:04;;;;;;;1.83;0.30;;;16.10;33.20;;;;;;5128612;28;20089;-72
2022/04/02 14:22:38;;;;;;;1.17;0.17;;;16.10;33.20;;;;;;5128727;28;20035;-67
2022/04/02 14:25:14;;;;;;;0.98;0.30;;;16.10;33.20;;;;;;5128533;28;20044;-73
2022/04/02 14:36:13;;;;;;;0.90;0.10;;;16.10;33.30;;;;;;5110080;27;20412;-72
2022/04/02 14:50:59;;;;;;;1.27;0.10;;;16.00;33.70;;;;;;5154886;27;1161238;-73
2022/04/02 14:56:37;;;;;;;0.73;0.00;;;15.90;33.70;;;;;;5153279;27;1156080;-71
2022/04/02 15:02:25;;;;;;;0.40;0.10;;;15.90;33.60;;;;;;5089451;27;20360;-72
2022/04/02 15:10:45;;;;;;;0.57;0.08;;;16.00;33.50;;;;;;5130226;27;20763;-73
2022/04/02 15:13:20;;;;;;;0.30;0.00;;;15.90;33.50;;;;;;5146498;27;20040;-71
2022/04/02 15:15:47;;;;;;;0.73;0.10;;;15.90;33.40;;;;;;5129166;28;20104;-73
2022/04/02 15:18:22;;;;;;;0.43;0.15;;;15.90;33.40;;;;;;5128912;28;20040;-72
2022/04/02 15:21:12;;;;;;;0.70;0.32;;;15.90;33.30;;;;;;5128787;28;20054;-73
2022/04/02 15:26:57;;;;;;;0.95;0.10;;;15.80;33.00;;;;;;5129347;27;20743;-66
2022/04/02 15:29:31;;;;;;;0.63;0.10;;;15.80;33.20;;;;;;5129013;28;20044;-74
2022/04/02 15:34:56;;;;;;;0.70;0.10;;;15.80;33.30;;;;;;5130276;27;20358;-72
2022/04/02 15:42:54;;;;;;;0.20;0.03;;;15.80;33.40;;;;;;5130333;27;20188;-72